Pearl Of Scandinavia — OWFU2 — position and weather

sailwx.info

Track history (hours):
 
Tides and Currents Weather Stations Pressure Air Temp Water Temp Dewpoint Dewpoint Depression Visibility Wind Speed Wind Dir Waves Ship Positions

Pearl Of Scandinavia

Last reported at 2017-Aug-23 07:31 UTC. Time now 2017-Aug-23 07:43 UTC.
Position N 55°42' E 012°36'.

Length 176.4 m; beam 34 m; draft 6.215 m.

Type: Ship. MMSI: 219945000.

Date/timePositionNaut miles runAvg speedWind from/ knotsBaromVisibWave heightAir tempDewpointWater temp
2017-Aug-23 07:31N 55°42' E 012°36'510.4
2017-Aug-23 07:01N 55°47' E 012°41'714.1
2017-Aug-23 06:31N 55°54' E 012°40'714.9
2017-Aug-23 06:01N 56°01' E 012°40'714.5
2017-Aug-23 05:31N 56°07' E 012°32'815.4
2017-Aug-23 05:01N 56°14' E 012°26'815.1
2017-Aug-23 04:30N 56°21' E 012°22'5016.0
2017-Aug-23 01:22N 57°09' E 011°56'616.3
2017-Aug-23 01:00N 57°15' E 011°51'916.8
2017-Aug-23 00:30N 57°22' E 011°42'817.2
2017-Aug-23 00:00N 57°29' E 011°34'816.4
2017-Aug-22 23:30N 57°36' E 011°28'816.4
2017-Aug-22 23:00N 57°44' E 011°21'816.5
2017-Aug-22 22:30N 57°51' E 011°16'816.4
2017-Aug-22 22:00N 57°59' E 011°11'916.3
2017-Aug-22 21:28N 58°08' E 011°07'715.9
2017-Aug-22 21:00N 58°15' E 011°03'816.0
2017-Aug-22 20:30N 58°22' E 010°58'1516.2
2017-Aug-22 19:32N 58°37' E 010°50'015.1
2017-Aug-22 19:31N 58°38' E 010°50'816.5
2017-Aug-22 19:01N 58°46' E 010°45'816.6
2017-Aug-22 18:31N 58°54' E 010°41'816.3
2017-Aug-22 18:01N 59°02' E 010°36'714.4
2017-Aug-22 17:30N 59°09' E 010°35'917.1
2017-Aug-22 17:00N 59°17' E 010°36'918.0
2017-Aug-22 16:30N 59°26' E 010°33'917.1
2017-Aug-22 16:00N 59°34' E 010°38'714.3
2017-Aug-22 15:30N 59°41' E 010°36'815.4
2017-Aug-22 15:01N 59°49' E 010°34'713.8
2017-Aug-22 14:30N 59°54' E 010°45'0 0.3
2017-Aug-22 13:59N 59°54' E 010°45'0 0.0
2017-Aug-22 13:29N 59°54' E 010°45'0 0.0
2017-Aug-22 12:59N 59°54' E 010°45'0 0.0
2017-Aug-22 12:29N 59°54' E 010°45'0 0.0
2017-Aug-22 11:59N 59°54' E 010°45'0 0.0
2017-Aug-22 11:29N 59°54' E 010°45'0 0.0
2017-Aug-22 10:59N 59°54' E 010°45'0 0.0
2017-Aug-22 10:29N 59°54' E 010°45'0 0.0
2017-Aug-22 09:59N 59°54' E 010°45'0 0.0
2017-Aug-22 09:29N 59°54' E 010°45'0 0.0
2017-Aug-22 08:59N 59°54' E 010°45'0 0.0
2017-Aug-22 08:29N 59°54' E 010°45'0 0.0
2017-Aug-22 07:59N 59°54' E 010°45'1 2.9
2017-Aug-22 07:30N 59°54' E 010°42'815.6
2017-Aug-22 07:00N 59°47' E 010°35'714.9
2017-Aug-22 06:30N 59°40' E 010°37'510.8
2017-Aug-22 06:00N 59°34' E 010°38'815.8
2017-Aug-22 05:30N 59°27' E 010°34'816.3
2017-Aug-22 05:00N 59°19' E 010°36'816.6
2017-Aug-22 04:30N 59°10' E 010°39'816.1
2017-Aug-22 04:00N 59°03' E 010°42'816.5
2017-Aug-22 03:30N 58°54' E 010°44'816.1
2017-Aug-22 03:00N 58°46' E 010°46'816.1
2017-Aug-22 02:30N 58°38' E 010°49'1516.3
2017-Aug-22 01:37N 58°24' E 010°56'616.8
2017-Aug-22 01:16N 58°19' E 010°59'517.2
2017-Aug-22 00:59N 58°14' E 011°02'817.2
2017-Aug-22 00:30N 58°06' E 011°07'917.1
2017-Aug-21 23:59N 57°58' E 011°12'816.6
2017-Aug-21 23:29N 57°50' E 011°16'816.6
2017-Aug-21 23:00N 57°42' E 011°21'816.6
2017-Aug-21 22:30N 57°34' E 011°26'815.9
2017-Aug-21 22:00N 57°27' E 011°30'816.4
2017-Aug-21 21:30N 57°19' E 011°34'916.7
2017-Aug-21 21:00N 57°11' E 011°39'816.6
2017-Aug-21 20:30N 57°03' E 011°44'5916.0
2017-Aug-21 16:48N 56°10' E 012°31'415.4
2017-Aug-21 16:30N 56°06' E 012°35'714.2
2017-Aug-21 16:00N 55°60' E 012°41'714.6
2017-Aug-21 15:30N 55°53' E 012°45'714.4
2017-Aug-21 15:00N 55°46' E 012°42'5 9.8
2017-Aug-21 14:30N 55°42' E 012°36'0 0.0
2017-Aug-21 13:59N 55°42' E 012°36'0 0.0
2017-Aug-21 13:29N 55°42' E 012°36'0 0.0
2017-Aug-21 12:59N 55°42' E 012°36'0 0.0
2017-Aug-21 12:29N 55°42' E 012°36'0 0.0
2017-Aug-21 11:59N 55°42' E 012°36'0 0.0
2017-Aug-21 11:29N 55°42' E 012°36'0 0.0
2017-Aug-21 10:59N 55°42' E 012°36'0 0.0
2017-Aug-21 10:29N 55°42' E 012°36'0 0.0
2017-Aug-21 09:59N 55°42' E 012°36'0 0.0
2017-Aug-21 09:29N 55°42' E 012°36'0 0.0
2017-Aug-21 08:59N 55°42' E 012°36'0 0.0
2017-Aug-21 08:29N 55°42' E 012°36'0 0.0
2017-Aug-21 07:59N 55°42' E 012°36'0 0.7
2017-Aug-21 07:30N 55°42' E 012°36'611.1
2017-Aug-21 07:01N 55°47' E 012°42'714.3
2017-Aug-21 06:31N 55°54' E 012°39'714.3
2017-Aug-21 06:01N 56°01' E 012°40'815.9
2017-Aug-21 05:31N 56°07' E 012°31'815.2
2017-Aug-21 05:01N 56°14' E 012°26'6316.6
2017-Aug-21 01:11N 57°15' E 011°50'316.9
2017-Aug-21 00:59N 57°18' E 011°47'817.1
2017-Aug-21 00:31N 57°24' E 011°39'816.9
2017-Aug-21 00:01N 57°32' E 011°30'917.0
2017-Aug-20 23:30N 57°39' E 011°22'917.0
2017-Aug-20 23:00N 57°47' E 011°15'917.0
2017-Aug-20 22:30N 57°55' E 011°09'916.9
2017-Aug-20 21:58N 58°03' E 011°02'817.0
2017-Aug-20 21:30N 58°10' E 010°55'916.4
2017-Aug-20 20:59N 58°18' E 010°48'2915.2
2017-Aug-20 19:05N 58°46' E 010°39'115.1
2017-Aug-20 19:00N 58°47' E 010°39'815.9
2017-Aug-20 18:30N 58°55' E 010°40'815.7
2017-Aug-20 18:00N 59°03' E 010°38'816.0
2017-Aug-20 17:31N 59°11' E 010°38'815.9
2017-Aug-20 17:01N 59°19' E 010°35'815.9
2017-Aug-20 16:31N 59°27' E 010°33'816.2
2017-Aug-20 16:01N 59°34' E 010°38'713.9
2017-Aug-20 15:31N 59°41' E 010°36'815.0
2017-Aug-20 15:00N 59°49' E 010°34'714.2
2017-Aug-20 14:30N 59°54' E 010°44'0 0.8
2017-Aug-20 13:59N 59°54' E 010°45'0 0.0
2017-Aug-20 13:29N 59°54' E 010°45'0 0.0
2017-Aug-20 12:59N 59°54' E 010°45'0 0.0
2017-Aug-20 12:29N 59°54' E 010°45'0 0.0
2017-Aug-20 11:59N 59°54' E 010°45'0 0.0
2017-Aug-20 11:29N 59°54' E 010°45'0 0.0
2017-Aug-20 10:59N 59°54' E 010°45'0 0.0
2017-Aug-20 10:29N 59°54' E 010°45'0 0.0
2017-Aug-20 09:59N 59°54' E 010°45'0 0.0
2017-Aug-20 09:29N 59°54' E 010°45'0 0.0
2017-Aug-20 08:59N 59°54' E 010°45'0 0.0
2017-Aug-20 08:29N 59°54' E 010°45'0 0.0
2017-Aug-20 07:59N 59°54' E 010°45'0 0.9
2017-Aug-20 07:30N 59°54' E 010°44'612.7
2017-Aug-20 07:00N 59°50' E 010°35'713.5
2017-Aug-20 06:30N 59°43' E 010°35'714.1
2017-Aug-20 06:00N 59°36' E 010°38'815.6
2017-Aug-20 05:30N 59°28' E 010°34'816.4
2017-Aug-20 05:00N 59°20' E 010°36'816.7
2017-Aug-20 04:30N 59°12' E 010°39'816.3
2017-Aug-20 04:00N 59°04' E 010°40'816.2
2017-Aug-20 03:30N 58°56' E 010°40'916.1
2017-Aug-20 02:58N 58°47' E 010°41'816.3
2017-Aug-20 02:30N 58°39' E 010°42'3416.5
2017-Aug-20 00:25N 58°06' E 010°54'716.6
2017-Aug-20 00:00N 57°59' E 010°59'917.0
2017-Aug-19 23:29N 57°51' E 011°04'816.0
2017-Aug-19 23:00N 57°44' E 011°09'816.3
2017-Aug-19 22:30N 57°37' E 011°18'917.5
2017-Aug-19 22:00N 57°30' E 011°27'817.0
2017-Aug-19 21:31N 57°22' E 011°32'917.4
2017-Aug-19 20:59N 57°13' E 011°37'817.5
2017-Aug-19 20:30N 57°05' E 011°42'6116.4
2017-Aug-19 16:49N 56°11' E 012°30'516.5
2017-Aug-19 16:30N 56°06' E 012°34'815.8
2017-Aug-19 16:00N 55°59' E 012°42'816.3
2017-Aug-19 15:30N 55°51' E 012°45'815.2
2017-Aug-19 15:00N 55°44' E 012°40'3 3.1
2017-Aug-19 13:59N 55°42' E 012°36'0 0.0
2017-Aug-19 13:29N 55°42' E 012°36'0 0.0
2017-Aug-19 12:59N 55°42' E 012°36'0 0.0
2017-Aug-19 12:29N 55°42' E 012°36'0 0.0
2017-Aug-19 11:59N 55°42' E 012°36'0 0.0
2017-Aug-19 11:29N 55°42' E 012°36'0 0.0
2017-Aug-19 10:59N 55°42' E 012°36'0 0.0
2017-Aug-19 10:29N 55°42' E 012°36'0 0.0
2017-Aug-19 09:59N 55°42' E 012°36'0 0.0
2017-Aug-19 09:29N 55°42' E 012°36'0 0.0
2017-Aug-19 08:59N 55°42' E 012°36'0 0.0
2017-Aug-19 08:29N 55°42' E 012°36'0 0.0
2017-Aug-19 07:59N 55°42' E 012°36'0 0.6
2017-Aug-19 07:31N 55°42' E 012°36'611.8
2017-Aug-19 07:00N 55°47' E 012°42'714.3
2017-Aug-19 06:30N 55°54' E 012°39'714.5
2017-Aug-19 06:00N 56°02' E 012°39'714.4
2017-Aug-19 05:30N 56°07' E 012°31'714.9
2017-Aug-19 05:00N 56°14' E 012°26'815.7
2017-Aug-19 04:29N 56°22' E 012°21'5516.5
2017-Aug-19 01:10N 57°14' E 011°52'316.4
2017-Aug-19 00:58N 57°17' E 011°49'816.2
2017-Aug-19 00:30N 57°23' E 011°41'816.8
2017-Aug-19 00:00N 57°30' E 011°32'816.8
2017-Aug-18 23:30N 57°36' E 011°22'816.6
2017-Aug-18 23:00N 57°43' E 011°12'816.5
2017-Aug-18 22:30N 57°50' E 011°05'816.3
2017-Aug-18 22:00N 57°58' E 010°60'816.3
2017-Aug-18 21:29N 58°06' E 010°55'816.6
2017-Aug-18 20:59N 58°14' E 010°49'816.8
2017-Aug-18 20:29N 58°22' E 010°44'2015.9
2017-Aug-18 19:13N 58°41' E 010°38'716.2
2017-Aug-18 18:48N 58°48' E 010°37'516.5
2017-Aug-18 18:30N 58°53' E 010°37'816.6
2017-Aug-18 18:00N 59°01' E 010°38'816.8
2017-Aug-18 17:30N 59°10' E 010°38'816.9
2017-Aug-18 17:00N 59°18' E 010°36'816.8
2017-Aug-18 16:30N 59°26' E 010°33'816.4
2017-Aug-18 16:00N 59°34' E 010°38'714.5
2017-Aug-18 15:30N 59°41' E 010°36'815.7
2017-Aug-18 15:00N 59°49' E 010°34'714.0
2017-Aug-18 14:30N 59°54' E 010°44'0 0.3
2017-Aug-18 13:29N 59°54' E 010°45'0 0.0
2017-Aug-18 12:59N 59°54' E 010°45'0 0.0
2017-Aug-18 12:29N 59°54' E 010°45'0 0.0
2017-Aug-18 11:59N 59°54' E 010°45'0 0.0
2017-Aug-18 11:29N 59°54' E 010°45'0 0.0
2017-Aug-18 10:59N 59°54' E 010°45'0 0.0
2017-Aug-18 10:29N 59°54' E 010°45'0 0.0
2017-Aug-18 09:59N 59°54' E 010°45'0 0.0
2017-Aug-18 09:29N 59°54' E 010°45'0 0.0
2017-Aug-18 08:56N 59°54' E 010°45'0 0.0
2017-Aug-18 08:29N 59°54' E 010°45'0 0.0
2017-Aug-18 07:59N 59°54' E 010°45'0 0.5
2017-Aug-18 07:30N 59°54' E 010°44'713.5
2017-Aug-18 07:00N 59°49' E 010°35'714.6
2017-Aug-18 06:30N 59°42' E 010°36'714.1
2017-Aug-18 06:00N 59°35' E 010°38'815.6
2017-Aug-18 05:30N 59°28' E 010°34'816.2
2017-Aug-18 05:00N 59°19' E 010°36'816.1
2017-Aug-18 04:30N 59°12' E 010°39'816.0
2017-Aug-18 04:00N 59°04' E 010°41'815.6
2017-Aug-18 03:30N 58°56' E 010°42'815.8
2017-Aug-18 03:00N 58°48' E 010°44'816.0
2017-Aug-18 02:30N 58°40' E 010°46'815.8
2017-Aug-18 02:00N 58°33' E 010°51'1815.7
2017-Aug-18 00:51N 58°15' E 011°01'716.0
2017-Aug-18 00:24N 58°08' E 011°06'716.0
2017-Aug-17 23:59N 58°02' E 011°09'815.8
2017-Aug-17 23:30N 57°55' E 011°14'815.4
2017-Aug-17 22:59N 57°47' E 011°18'815.6
2017-Aug-17 22:30N 57°40' E 011°23'815.8
2017-Aug-17 22:00N 57°33' E 011°27'815.6
2017-Aug-17 21:30N 57°25' E 011°31'815.7
2017-Aug-17 21:00N 57°18' E 011°36'816.1
2017-Aug-17 20:30N 57°10' E 011°39'816.0
2017-Aug-17 20:00N 57°02' E 011°44'5816.1
2017-Aug-17 16:24N 56°10' E 012°30'717.5
2017-Aug-17 16:00N 56°05' E 012°37'816.3
2017-Aug-17 15:30N 55°57' E 012°43'816.1
2017-Aug-17 15:00N 55°49' E 012°44'714.8
2017-Aug-17 14:30N 55°43' E 012°37'1 1.7
2017-Aug-17 13:58N 55°42' E 012°36'0 0.0
2017-Aug-17 13:28N 55°42' E 012°36'0 0.0
2017-Aug-17 12:58N 55°42' E 012°36'0 0.0
2017-Aug-17 12:28N 55°42' E 012°36'0 0.0
2017-Aug-17 11:58N 55°42' E 012°36'0 0.0
2017-Aug-17 11:28N 55°42' E 012°36'0 0.0
2017-Aug-17 10:58N 55°42' E 012°36'0 0.0
2017-Aug-17 10:28N 55°42' E 012°36'0 0.0
2017-Aug-17 09:58N 55°42' E 012°36'0 0.0
2017-Aug-17 09:28N 55°42' E 012°36'0 0.0
2017-Aug-17 08:58N 55°42' E 012°36'0 0.0
2017-Aug-17 08:28N 55°42' E 012°36'0 0.0
2017-Aug-17 07:58N 55°42' E 012°36'0 0.7
2017-Aug-17 07:30N 55°42' E 012°36'510.6
2017-Aug-17 07:00N 55°47' E 012°42'714.1
2017-Aug-17 06:30N 55°54' E 012°40'714.6
2017-Aug-17 06:00N 56°01' E 012°40'714.4
2017-Aug-17 05:30N 56°07' E 012°32'715.0
2017-Aug-17 05:00N 56°13' E 012°26'815.5
2017-Aug-17 04:30N 56°21' E 012°21'816.0
2017-Aug-17 04:00N 56°28' E 012°17'815.9
2017-Aug-17 03:29N 56°36' E 012°12'815.8
2017-Aug-17 03:00N 56°44' E 012°08'815.9
2017-Aug-17 02:30N 56°51' E 012°04'2316.8
2017-Aug-17 01:06N 57°14' E 011°52'217.3
2017-Aug-17 01:01N 57°15' E 011°51'917.4
2017-Aug-17 00:30N 57°23' E 011°43'917.6
2017-Aug-17 00:00N 57°30' E 011°35'917.2
2017-Aug-16 23:30N 57°38' E 011°27'917.1
2017-Aug-16 23:00N 57°45' E 011°19'816.8
2017-Aug-16 22:30N 57°53' E 011°13'917.0
2017-Aug-16 21:59N 58°02' E 011°10'816.4
2017-Aug-16 21:30N 58°09' E 011°06'816.4
2017-Aug-16 21:00N 58°17' E 011°02'817.3
2017-Aug-16 20:30N 58°26' E 010°57'916.8
2017-Aug-16 20:00N 58°34' E 010°53'816.2
2017-Aug-16 19:30N 58°42' E 010°49'816.1
2017-Aug-16 19:00N 58°49' E 010°45'816.1
2017-Aug-16 18:30N 58°57' E 010°42'816.6
2017-Aug-16 18:00N 59°05' E 010°40'816.8
2017-Aug-16 17:30N 59°14' E 010°37'816.9
2017-Aug-16 17:00N 59°22' E 010°34'816.6
2017-Aug-16 16:30N 59°30' E 010°35'815.9
2017-Aug-16 16:00N 59°38' E 010°37'714.4
2017-Aug-16 15:30N 59°45' E 010°33'816.0
2017-Aug-16 15:00N 59°53' E 010°39'3 6.5
2017-Aug-16 14:30N 59°54' E 010°45'0 0.0
2017-Aug-16 13:55N 59°54' E 010°45'0 0.0
2017-Aug-16 13:25N 59°54' E 010°45'0 0.0
2017-Aug-16 12:55N 59°54' E 010°45'0 0.0
2017-Aug-16 12:25N 59°54' E 010°45'0 0.0
2017-Aug-16 11:55N 59°54' E 010°45'0 0.0
2017-Aug-16 11:25N 59°54' E 010°45'0 0.0
2017-Aug-16 10:55N 59°54' E 010°45'0 0.0
2017-Aug-16 10:25N 59°54' E 010°45'0 0.0
2017-Aug-16 09:55N 59°54' E 010°45'0 0.0
2017-Aug-16 09:25N 59°54' E 010°45'0 0.0
2017-Aug-16 08:55N 59°54' E 010°45'0 0.0
2017-Aug-16 08:25N 59°54' E 010°45'0 0.0
2017-Aug-16 07:55N 59°54' E 010°45'0 0.8
2017-Aug-16 07:30N 59°54' E 010°44'713.8
2017-Aug-16 07:00N 59°49' E 010°35'714.5
2017-Aug-16 06:30N 59°42' E 010°36'714.6
2017-Aug-16 06:00N 59°35' E 010°38'815.5
2017-Aug-16 05:31N 59°27' E 010°34'815.5
2017-Aug-16 05:01N 59°20' E 010°36'815.5
2017-Aug-16 04:30N 59°12' E 010°39'815.6
2017-Aug-16 04:01N 59°04' E 010°40'815.4
2017-Aug-16 03:31N 58°57' E 010°43'815.7
2017-Aug-16 03:00N 58°49' E 010°46'815.7
2017-Aug-16 02:30N 58°41' E 010°49'1816.0
2017-Aug-16 01:23N 58°24' E 010°57'716.0
2017-Aug-16 00:57N 58°17' E 011°01'716.2
2017-Aug-16 00:30N 58°10' E 011°04'816.0
2017-Aug-16 00:00N 58°03' E 011°09'816.2
2017-Aug-15 23:30N 57°55' E 011°14'816.0
2017-Aug-15 23:00N 57°47' E 011°18'816.1
2017-Aug-15 22:30N 57°40' E 011°23'816.3
2017-Aug-15 22:00N 57°32' E 011°27'816.2
2017-Aug-15 21:30N 57°24' E 011°32'816.5
2017-Aug-15 21:00N 57°16' E 011°36'816.3
2017-Aug-15 20:31N 57°09' E 011°40'816.1
2017-Aug-15 20:00N 57°01' E 011°45'815.9
2017-Aug-15 19:30N 56°53' E 011°50'815.8
2017-Aug-15 18:59N 56°46' E 011°55'915.9
2017-Aug-15 18:27N 56°38' E 012°00'715.9
2017-Aug-15 18:00N 56°30' E 012°03'2315.9
2017-Aug-15 16:32N 56°12' E 012°27'217.1
2017-Aug-15 16:27N 56°10' E 012°29'818.4
2017-Aug-15 16:01N 56°04' E 012°38'917.1
2017-Aug-15 15:30N 55°56' E 012°44'816.4
2017-Aug-15 15:01N 55°48' E 012°43'713.5
2017-Aug-15 14:31N 55°42' E 012°36'0 0.5
2017-Aug-15 13:59N 55°42' E 012°36'0 0.0
2017-Aug-15 13:29N 55°42' E 012°36'0 0.0
2017-Aug-15 12:59N 55°42' E 012°36'0 0.0
2017-Aug-15 12:29N 55°42' E 012°36'0 0.0
2017-Aug-15 11:59N 55°42' E 012°36'0 0.0
2017-Aug-15 11:29N 55°42' E 012°36'0 0.0
2017-Aug-15 10:59N 55°42' E 012°36'0 0.0
2017-Aug-15 10:29N 55°42' E 012°36'0 0.0
2017-Aug-15 09:59N 55°42' E 012°36'0 0.0
2017-Aug-15 09:29N 55°42' E 012°36'0 0.0
2017-Aug-15 08:59N 55°42' E 012°36'0 0.0
2017-Aug-15 08:29N 55°42' E 012°36'0 0.0
2017-Aug-15 07:59N 55°42' E 012°36'0 0.7
2017-Aug-15 07:30N 55°42' E 012°36'5 9.6
2017-Aug-15 07:00N 55°46' E 012°41'713.4
2017-Aug-15 06:30N 55°53' E 012°40'714.1
2017-Aug-15 06:01N 55°60' E 012°37'611.9
2017-Aug-15 05:30N 56°06' E 012°35'714.5
2017-Aug-15 05:00N 56°12' E 012°28'815.4
2017-Aug-15 04:30N 56°19' E 012°22'916.1
2017-Aug-15 03:57N 56°27' E 012°17'715.5
2017-Aug-15 03:30N 56°34' E 012°14'1715.3
2017-Aug-15 02:25N 56°50' E 012°04'715.2
2017-Aug-15 01:58N 56°56' E 012°01'1115.7
2017-Aug-15 01:18N 57°06' E 011°56'715.8
2017-Aug-15 00:52N 57°13' E 011°52'617.0
2017-Aug-15 00:30N 57°18' E 011°46'917.4
2017-Aug-15 00:00N 57°26' E 011°37'817.0
2017-Aug-14 23:30N 57°33' E 011°29'816.6
2017-Aug-14 23:00N 57°40' E 011°23'916.5
2017-Aug-14 22:29N 57°48' E 011°17'916.9
2017-Aug-14 21:59N 57°57' E 011°13'817.0
2017-Aug-14 21:30N 58°05' E 011°09'916.7
2017-Aug-14 20:59N 58°13' E 011°04'816.9
2017-Aug-14 20:30N 58°21' E 010°60'917.0
2017-Aug-14 19:59N 58°29' E 010°55'816.5
2017-Aug-14 19:29N 58°37' E 010°51'816.5
2017-Aug-14 19:00N 58°45' E 010°47'917.5
2017-Aug-14 18:30N 58°53' E 010°44'917.8
2017-Aug-14 18:00N 59°02' E 010°41'917.8
2017-Aug-14 17:30N 59°11' E 010°38'917.7
2017-Aug-14 17:00N 59°19' E 010°35'917.3
2017-Aug-14 16:30N 59°28' E 010°34'816.4
2017-Aug-14 16:00N 59°36' E 010°38'714.4
2017-Aug-14 15:30N 59°43' E 010°34'816.1
2017-Aug-14 15:00N 59°51' E 010°36'5 2.8
2017-Aug-14 13:05N 59°54' E 010°45'0 0.0
2017-Aug-14 12:59N 59°54' E 010°45'0 0.0
2017-Aug-14 12:29N 59°54' E 010°45'0 0.0
2017-Aug-14 11:59N 59°54' E 010°45'0 0.0
2017-Aug-14 11:29N 59°54' E 010°45'0 0.0
2017-Aug-14 10:59N 59°54' E 010°45'0 0.0
2017-Aug-14 10:29N 59°54' E 010°45'0 0.0
2017-Aug-14 09:59N 59°54' E 010°45'0 0.0
2017-Aug-14 09:29N 59°54' E 010°45'0 0.0
2017-Aug-14 08:59N 59°54' E 010°45'0 0.0
2017-Aug-14 08:29N 59°54' E 010°45'0 0.0
2017-Aug-14 07:59N 59°54' E 010°45'0 0.5
2017-Aug-14 07:30N 59°54' E 010°44'612.5
2017-Aug-14 07:01N 59°50' E 010°36'814.8
2017-Aug-14 06:30N 59°42' E 010°36'714.3
2017-Aug-14 06:01N 59°35' E 010°38'815.6
2017-Aug-14 05:31N 59°28' E 010°35'815.4
2017-Aug-14 05:00N 59°20' E 010°36'815.6
2017-Aug-14 04:30N 59°12' E 010°39'815.4
2017-Aug-14 04:01N 59°05' E 010°40'815.3
2017-Aug-14 03:31N 58°57' E 010°42'815.3
2017-Aug-14 03:01N 58°50' E 010°45'815.2
2017-Aug-14 02:30N 58°42' E 010°48'815.3
2017-Aug-14 02:00N 58°35' E 010°51'816.2
2017-Aug-14 01:30N 58°27' E 010°56'816.8
2017-Aug-14 01:00N 58°19' E 011°01'816.8
2017-Aug-14 00:30N 58°11' E 011°04'917.1
2017-Aug-14 00:00N 58°02' E 011°09'917.0
2017-Aug-13 23:29N 57°54' E 011°14'816.7
2017-Aug-13 22:59N 57°46' E 011°18'917.0
2017-Aug-13 22:29N 57°38' E 011°23'816.9
2017-Aug-13 22:00N 57°30' E 011°28'816.6
2017-Aug-13 21:30N 57°22' E 011°32'917.0
2017-Aug-13 21:00N 57°14' E 011°37'916.8
2017-Aug-13 20:29N 57°06' E 011°42'6316.3
2017-Aug-13 16:37N 56°09' E 012°32'215.9
2017-Aug-13 16:30N 56°07' E 012°33'815.0
2017-Aug-13 16:00N 56°01' E 012°41'815.3
2017-Aug-13 15:31N 55°54' E 012°44'815.0
2017-Aug-13 15:01N 55°47' E 012°42'611.0
2017-Aug-13 14:30N 55°42' E 012°36'0 0.0
2017-Aug-13 14:00N 55°42' E 012°36'0 0.0
2017-Aug-13 13:30N 55°42' E 012°36'0 0.0
2017-Aug-13 13:00N 55°42' E 012°36'0 0.0
2017-Aug-13 12:30N 55°42' E 012°36'0 0.0
2017-Aug-13 12:00N 55°42' E 012°36'0 0.0
2017-Aug-13 11:30N 55°42' E 012°36'0 0.0
2017-Aug-13 11:00N 55°42' E 012°36'0 0.0
2017-Aug-13 10:30N 55°42' E 012°36'0 0.0
2017-Aug-13 10:00N 55°42' E 012°36'0 0.0
2017-Aug-13 09:30N 55°42' E 012°36'0 0.0
2017-Aug-13 09:00N 55°42' E 012°36'0 0.0
2017-Aug-13 08:30N 55°42' E 012°36'0 0.0
2017-Aug-13 08:00N 55°42' E 012°36'0 0.6
2017-Aug-13 07:31N 55°42' E 012°36'  
Track history (hours):
 
Tides and Currents Weather Stations Pressure Air Temp Water Temp Dewpoint Dewpoint Depression Visibility Wind Speed Wind Dir Waves Ship Positions

Pearl Of Scandinavia

Last reported at 2017-Aug-23 07:31 UTC. Time now 2017-Aug-23 07:43 UTC.
Position N 55°42' E 012°36'.

Length 176.4 m; beam 34 m; draft 6.215 m.

Type: Ship. MMSI: 219945000.

Date/timePositionNaut miles runAvg speedWind from/ knotsBaromVisibWave heightAir tempDewpointWater temp
2017-Aug-23 07:31N 55°42' E 012°36'510.4
2017-Aug-23 07:01N 55°47' E 012°41'714.1
2017-Aug-23 06:31N 55°54' E 012°40'714.9
2017-Aug-23 06:01N 56°01' E 012°40'714.5
2017-Aug-23 05:31N 56°07' E 012°32'815.4
2017-Aug-23 05:01N 56°14' E 012°26'815.1
2017-Aug-23 04:30N 56°21' E 012°22'5016.0
2017-Aug-23 01:22N 57°09' E 011°56'616.3
2017-Aug-23 01:00N 57°15' E 011°51'916.8
2017-Aug-23 00:30N 57°22' E 011°42'817.2
2017-Aug-23 00:00N 57°29' E 011°34'816.4
2017-Aug-22 23:30N 57°36' E 011°28'816.4
2017-Aug-22 23:00N 57°44' E 011°21'816.5
2017-Aug-22 22:30N 57°51' E 011°16'816.4
2017-Aug-22 22:00N 57°59' E 011°11'916.3
2017-Aug-22 21:28N 58°08' E 011°07'715.9
2017-Aug-22 21:00N 58°15' E 011°03'816.0
2017-Aug-22 20:30N 58°22' E 010°58'1516.2
2017-Aug-22 19:32N 58°37' E 010°50'015.1
2017-Aug-22 19:31N 58°38' E 010°50'816.5
2017-Aug-22 19:01N 58°46' E 010°45'816.6
2017-Aug-22 18:31N 58°54' E 010°41'816.3
2017-Aug-22 18:01N 59°02' E 010°36'714.4
2017-Aug-22 17:30N 59°09' E 010°35'917.1
2017-Aug-22 17:00N 59°17' E 010°36'918.0
2017-Aug-22 16:30N 59°26' E 010°33'917.1
2017-Aug-22 16:00N 59°34' E 010°38'714.3
2017-Aug-22 15:30N 59°41' E 010°36'815.4
2017-Aug-22 15:01N 59°49' E 010°34'713.8
2017-Aug-22 14:30N 59°54' E 010°45'0 0.3
2017-Aug-22 13:59N 59°54' E 010°45'0 0.0
2017-Aug-22 13:29N 59°54' E 010°45'0 0.0
2017-Aug-22 12:59N 59°54' E 010°45'0 0.0
2017-Aug-22 12:29N 59°54' E 010°45'0 0.0
2017-Aug-22 11:59N 59°54' E 010°45'0 0.0
2017-Aug-22 11:29N 59°54' E 010°45'0 0.0
2017-Aug-22 10:59N 59°54' E 010°45'0 0.0
2017-Aug-22 10:29N 59°54' E 010°45'0 0.0
2017-Aug-22 09:59N 59°54' E 010°45'0 0.0
2017-Aug-22 09:29N 59°54' E 010°45'0 0.0
2017-Aug-22 08:59N 59°54' E 010°45'0 0.0
2017-Aug-22 08:29N 59°54' E 010°45'0 0.0
2017-Aug-22 07:59N 59°54' E 010°45'1 2.9
2017-Aug-22 07:30N 59°54' E 010°42'815.6
2017-Aug-22 07:00N 59°47' E 010°35'714.9
2017-Aug-22 06:30N 59°40' E 010°37'510.8
2017-Aug-22 06:00N 59°34' E 010°38'815.8
2017-Aug-22 05:30N 59°27' E 010°34'816.3
2017-Aug-22 05:00N 59°19' E 010°36'816.6
2017-Aug-22 04:30N 59°10' E 010°39'816.1
2017-Aug-22 04:00N 59°03' E 010°42'816.5
2017-Aug-22 03:30N 58°54' E 010°44'816.1
2017-Aug-22 03:00N 58°46' E 010°46'816.1
2017-Aug-22 02:30N 58°38' E 010°49'1516.3
2017-Aug-22 01:37N 58°24' E 010°56'616.8
2017-Aug-22 01:16N 58°19' E 010°59'517.2
2017-Aug-22 00:59N 58°14' E 011°02'817.2
2017-Aug-22 00:30N 58°06' E 011°07'917.1
2017-Aug-21 23:59N 57°58' E 011°12'816.6
2017-Aug-21 23:29N 57°50' E 011°16'816.6
2017-Aug-21 23:00N 57°42' E 011°21'816.6
2017-Aug-21 22:30N 57°34' E 011°26'815.9
2017-Aug-21 22:00N 57°27' E 011°30'816.4
2017-Aug-21 21:30N 57°19' E 011°34'916.7
2017-Aug-21 21:00N 57°11' E 011°39'816.6
2017-Aug-21 20:30N 57°03' E 011°44'5916.0
2017-Aug-21 16:48N 56°10' E 012°31'415.4
2017-Aug-21 16:30N 56°06' E 012°35'714.2
2017-Aug-21 16:00N 55°60' E 012°41'714.6
2017-Aug-21 15:30N 55°53' E 012°45'714.4
2017-Aug-21 15:00N 55°46' E 012°42'5 9.8
2017-Aug-21 14:30N 55°42' E 012°36'0 0.0
2017-Aug-21 13:59N 55°42' E 012°36'0 0.0
2017-Aug-21 13:29N 55°42' E 012°36'0 0.0
2017-Aug-21 12:59N 55°42' E 012°36'0 0.0
2017-Aug-21 12:29N 55°42' E 012°36'0 0.0
2017-Aug-21 11:59N 55°42' E 012°36'0 0.0
2017-Aug-21 11:29N 55°42' E 012°36'0 0.0
2017-Aug-21 10:59N 55°42' E 012°36'0 0.0
2017-Aug-21 10:29N 55°42' E 012°36'0 0.0
2017-Aug-21 09:59N 55°42' E 012°36'0 0.0
2017-Aug-21 09:29N 55°42' E 012°36'0 0.0
2017-Aug-21 08:59N 55°42' E 012°36'0 0.0
2017-Aug-21 08:29N 55°42' E 012°36'0 0.0
2017-Aug-21 07:59N 55°42' E 012°36'0 0.7
2017-Aug-21 07:30N 55°42' E 012°36'611.1
2017-Aug-21 07:01N 55°47' E 012°42'714.3
2017-Aug-21 06:31N 55°54' E 012°39'714.3
2017-Aug-21 06:01N 56°01' E 012°40'815.9
2017-Aug-21 05:31N 56°07' E 012°31'815.2
2017-Aug-21 05:01N 56°14' E 012°26'6316.6
2017-Aug-21 01:11N 57°15' E 011°50'316.9
2017-Aug-21 00:59N 57°18' E 011°47'817.1
2017-Aug-21 00:31N 57°24' E 011°39'816.9
2017-Aug-21 00:01N 57°32' E 011°30'917.0
2017-Aug-20 23:30N 57°39' E 011°22'917.0
2017-Aug-20 23:00N 57°47' E 011°15'917.0
2017-Aug-20 22:30N 57°55' E 011°09'916.9
2017-Aug-20 21:58N 58°03' E 011°02'817.0
2017-Aug-20 21:30N 58°10' E 010°55'916.4
2017-Aug-20 20:59N 58°18' E 010°48'2915.2
2017-Aug-20 19:05N 58°46' E 010°39'115.1
2017-Aug-20 19:00N 58°47' E 010°39'815.9
2017-Aug-20 18:30N 58°55' E 010°40'815.7
2017-Aug-20 18:00N 59°03' E 010°38'816.0
2017-Aug-20 17:31N 59°11' E 010°38'815.9
2017-Aug-20 17:01N 59°19' E 010°35'815.9
2017-Aug-20 16:31N 59°27' E 010°33'816.2
2017-Aug-20 16:01N 59°34' E 010°38'713.9
2017-Aug-20 15:31N 59°41' E 010°36'815.0
2017-Aug-20 15:00N 59°49' E 010°34'714.2
2017-Aug-20 14:30N 59°54' E 010°44'0 0.8
2017-Aug-20 13:59N 59°54' E 010°45'0 0.0
2017-Aug-20 13:29N 59°54' E 010°45'0 0.0
2017-Aug-20 12:59N 59°54' E 010°45'0 0.0
2017-Aug-20 12:29N 59°54' E 010°45'0 0.0
2017-Aug-20 11:59N 59°54' E 010°45'0 0.0
2017-Aug-20 11:29N 59°54' E 010°45'0 0.0
2017-Aug-20 10:59N 59°54' E 010°45'0 0.0
2017-Aug-20 10:29N 59°54' E 010°45'0 0.0
2017-Aug-20 09:59N 59°54' E 010°45'0 0.0
2017-Aug-20 09:29N 59°54' E 010°45'0 0.0
2017-Aug-20 08:59N 59°54' E 010°45'0 0.0
2017-Aug-20 08:29N 59°54' E 010°45'0 0.0
2017-Aug-20 07:59N 59°54' E 010°45'0 0.9
2017-Aug-20 07:30N 59°54' E 010°44'612.7
2017-Aug-20 07:00N 59°50' E 010°35'713.5
2017-Aug-20 06:30N 59°43' E 010°35'714.1
2017-Aug-20 06:00N 59°36' E 010°38'815.6
2017-Aug-20 05:30N 59°28' E 010°34'816.4
2017-Aug-20 05:00N 59°20' E 010°36'816.7
2017-Aug-20 04:30N 59°12' E 010°39'816.3
2017-Aug-20 04:00N 59°04' E 010°40'816.2
2017-Aug-20 03:30N 58°56' E 010°40'916.1
2017-Aug-20 02:58N 58°47' E 010°41'816.3
2017-Aug-20 02:30N 58°39' E 010°42'3416.5
2017-Aug-20 00:25N 58°06' E 010°54'716.6
2017-Aug-20 00:00N 57°59' E 010°59'917.0
2017-Aug-19 23:29N 57°51' E 011°04'816.0
2017-Aug-19 23:00N 57°44' E 011°09'816.3
2017-Aug-19 22:30N 57°37' E 011°18'917.5
2017-Aug-19 22:00N 57°30' E 011°27'817.0
2017-Aug-19 21:31N 57°22' E 011°32'917.4
2017-Aug-19 20:59N 57°13' E 011°37'817.5
2017-Aug-19 20:30N 57°05' E 011°42'6116.4
2017-Aug-19 16:49N 56°11' E 012°30'516.5
2017-Aug-19 16:30N 56°06' E 012°34'815.8
2017-Aug-19 16:00N 55°59' E 012°42'816.3
2017-Aug-19 15:30N 55°51' E 012°45'815.2
2017-Aug-19 15:00N 55°44' E 012°40'3 3.1
2017-Aug-19 13:59N 55°42' E 012°36'0 0.0
2017-Aug-19 13:29N 55°42' E 012°36'0 0.0
2017-Aug-19 12:59N 55°42' E 012°36'0 0.0
2017-Aug-19 12:29N 55°42' E 012°36'0 0.0
2017-Aug-19 11:59N 55°42' E 012°36'0 0.0
2017-Aug-19 11:29N 55°42' E 012°36'0 0.0
2017-Aug-19 10:59N 55°42' E 012°36'0 0.0
2017-Aug-19 10:29N 55°42' E 012°36'0 0.0
2017-Aug-19 09:59N 55°42' E 012°36'0 0.0
2017-Aug-19 09:29N 55°42' E 012°36'0 0.0
2017-Aug-19 08:59N 55°42' E 012°36'0 0.0
2017-Aug-19 08:29N 55°42' E 012°36'0 0.0
2017-Aug-19 07:59N 55°42' E 012°36'0 0.6
2017-Aug-19 07:31N 55°42' E 012°36'611.8
2017-Aug-19 07:00N 55°47' E 012°42'714.3
2017-Aug-19 06:30N 55°54' E 012°39'714.5
2017-Aug-19 06:00N 56°02' E 012°39'714.4
2017-Aug-19 05:30N 56°07' E 012°31'714.9
2017-Aug-19 05:00N 56°14' E 012°26'815.7
2017-Aug-19 04:29N 56°22' E 012°21'5516.5
2017-Aug-19 01:10N 57°14' E 011°52'316.4
2017-Aug-19 00:58N 57°17' E 011°49'816.2
2017-Aug-19 00:30N 57°23' E 011°41'816.8
2017-Aug-19 00:00N 57°30' E 011°32'816.8
2017-Aug-18 23:30N 57°36' E 011°22'816.6
2017-Aug-18 23:00N 57°43' E 011°12'816.5
2017-Aug-18 22:30N 57°50' E 011°05'816.3
2017-Aug-18 22:00N 57°58' E 010°60'816.3
2017-Aug-18 21:29N 58°06' E 010°55'816.6
2017-Aug-18 20:59N 58°14' E 010°49'816.8
2017-Aug-18 20:29N 58°22' E 010°44'2015.9
2017-Aug-18 19:13N 58°41' E 010°38'716.2
2017-Aug-18 18:48N 58°48' E 010°37'516.5
2017-Aug-18 18:30N 58°53' E 010°37'816.6
2017-Aug-18 18:00N 59°01' E 010°38'816.8
2017-Aug-18 17:30N 59°10' E 010°38'816.9
2017-Aug-18 17:00N 59°18' E 010°36'816.8
2017-Aug-18 16:30N 59°26' E 010°33'816.4
2017-Aug-18 16:00N 59°34' E 010°38'714.5
2017-Aug-18 15:30N 59°41' E 010°36'815.7
2017-Aug-18 15:00N 59°49' E 010°34'714.0
2017-Aug-18 14:30N 59°54' E 010°44'0 0.3
2017-Aug-18 13:29N 59°54' E 010°45'0 0.0
2017-Aug-18 12:59N 59°54' E 010°45'0 0.0
2017-Aug-18 12:29N 59°54' E 010°45'0 0.0
2017-Aug-18 11:59N 59°54' E 010°45'0 0.0
2017-Aug-18 11:29N 59°54' E 010°45'0 0.0
2017-Aug-18 10:59N 59°54' E 010°45'0 0.0
2017-Aug-18 10:29N 59°54' E 010°45'0 0.0
2017-Aug-18 09:59N 59°54' E 010°45'0 0.0
2017-Aug-18 09:29N 59°54' E 010°45'0 0.0
2017-Aug-18 08:56N 59°54' E 010°45'0 0.0
2017-Aug-18 08:29N 59°54' E 010°45'0 0.0
2017-Aug-18 07:59N 59°54' E 010°45'0 0.5
2017-Aug-18 07:30N 59°54' E 010°44'713.5
2017-Aug-18 07:00N 59°49' E 010°35'714.6
2017-Aug-18 06:30N 59°42' E 010°36'714.1
2017-Aug-18 06:00N 59°35' E 010°38'815.6
2017-Aug-18 05:30N 59°28' E 010°34'816.2
2017-Aug-18 05:00N 59°19' E 010°36'816.1
2017-Aug-18 04:30N 59°12' E 010°39'816.0
2017-Aug-18 04:00N 59°04' E 010°41'815.6
2017-Aug-18 03:30N 58°56' E 010°42'815.8
2017-Aug-18 03:00N 58°48' E 010°44'816.0
2017-Aug-18 02:30N 58°40' E 010°46'815.8
2017-Aug-18 02:00N 58°33' E 010°51'1815.7
2017-Aug-18 00:51N 58°15' E 011°01'716.0
2017-Aug-18 00:24N 58°08' E 011°06'716.0
2017-Aug-17 23:59N 58°02' E 011°09'815.8
2017-Aug-17 23:30N 57°55' E 011°14'815.4
2017-Aug-17 22:59N 57°47' E 011°18'815.6
2017-Aug-17 22:30N 57°40' E 011°23'815.8
2017-Aug-17 22:00N 57°33' E 011°27'815.6
2017-Aug-17 21:30N 57°25' E 011°31'815.7
2017-Aug-17 21:00N 57°18' E 011°36'816.1
2017-Aug-17 20:30N 57°10' E 011°39'816.0
2017-Aug-17 20:00N 57°02' E 011°44'5816.1
2017-Aug-17 16:24N 56°10' E 012°30'717.5
2017-Aug-17 16:00N 56°05' E 012°37'816.3
2017-Aug-17 15:30N 55°57' E 012°43'816.1
2017-Aug-17 15:00N 55°49' E 012°44'714.8
2017-Aug-17 14:30N 55°43' E 012°37'1 1.7
2017-Aug-17 13:58N 55°42' E 012°36'0 0.0
2017-Aug-17 13:28N 55°42' E 012°36'0 0.0
2017-Aug-17 12:58N 55°42' E 012°36'0 0.0
2017-Aug-17 12:28N 55°42' E 012°36'0 0.0
2017-Aug-17 11:58N 55°42' E 012°36'0 0.0
2017-Aug-17 11:28N 55°42' E 012°36'0 0.0
2017-Aug-17 10:58N 55°42' E 012°36'0 0.0
2017-Aug-17 10:28N 55°42' E 012°36'0 0.0
2017-Aug-17 09:58N 55°42' E 012°36'0 0.0
2017-Aug-17 09:28N 55°42' E 012°36'0 0.0
2017-Aug-17 08:58N 55°42' E 012°36'0 0.0
2017-Aug-17 08:28N 55°42' E 012°36'0 0.0
2017-Aug-17 07:58N 55°42' E 012°36'0 0.7
2017-Aug-17 07:30N 55°42' E 012°36'510.6
2017-Aug-17 07:00N 55°47' E 012°42'714.1
2017-Aug-17 06:30N 55°54' E 012°40'714.6
2017-Aug-17 06:00N 56°01' E 012°40'714.4
2017-Aug-17 05:30N 56°07' E 012°32'715.0
2017-Aug-17 05:00N 56°13' E 012°26'815.5
2017-Aug-17 04:30N 56°21' E 012°21'816.0
2017-Aug-17 04:00N 56°28' E 012°17'815.9
2017-Aug-17 03:29N 56°36' E 012°12'815.8
2017-Aug-17 03:00N 56°44' E 012°08'815.9
2017-Aug-17 02:30N 56°51' E 012°04'2316.8
2017-Aug-17 01:06N 57°14' E 011°52'217.3
2017-Aug-17 01:01N 57°15' E 011°51'917.4
2017-Aug-17 00:30N 57°23' E 011°43'917.6
2017-Aug-17 00:00N 57°30' E 011°35'917.2
2017-Aug-16 23:30N 57°38' E 011°27'917.1
2017-Aug-16 23:00N 57°45' E 011°19'816.8
2017-Aug-16 22:30N 57°53' E 011°13'917.0
2017-Aug-16 21:59N 58°02' E 011°10'816.4
2017-Aug-16 21:30N 58°09' E 011°06'816.4
2017-Aug-16 21:00N 58°17' E 011°02'817.3
2017-Aug-16 20:30N 58°26' E 010°57'916.8
2017-Aug-16 20:00N 58°34' E 010°53'816.2
2017-Aug-16 19:30N 58°42' E 010°49'816.1
2017-Aug-16 19:00N 58°49' E 010°45'816.1
2017-Aug-16 18:30N 58°57' E 010°42'816.6
2017-Aug-16 18:00N 59°05' E 010°40'816.8
2017-Aug-16 17:30N 59°14' E 010°37'816.9
2017-Aug-16 17:00N 59°22' E 010°34'816.6
2017-Aug-16 16:30N 59°30' E 010°35'815.9
2017-Aug-16 16:00N 59°38' E 010°37'714.4
2017-Aug-16 15:30N 59°45' E 010°33'816.0
2017-Aug-16 15:00N 59°53' E 010°39'3 6.5
2017-Aug-16 14:30N 59°54' E 010°45'0 0.0
2017-Aug-16 13:55N 59°54' E 010°45'0 0.0
2017-Aug-16 13:25N 59°54' E 010°45'0 0.0
2017-Aug-16 12:55N 59°54' E 010°45'0 0.0
2017-Aug-16 12:25N 59°54' E 010°45'0 0.0
2017-Aug-16 11:55N 59°54' E 010°45'0 0.0
2017-Aug-16 11:25N 59°54' E 010°45'0 0.0
2017-Aug-16 10:55N 59°54' E 010°45'0 0.0
2017-Aug-16 10:25N 59°54' E 010°45'0 0.0
2017-Aug-16 09:55N 59°54' E 010°45'0 0.0
2017-Aug-16 09:25N 59°54' E 010°45'0 0.0
2017-Aug-16 08:55N 59°54' E 010°45'0 0.0
2017-Aug-16 08:25N 59°54' E 010°45'0 0.0
2017-Aug-16 07:55N 59°54' E 010°45'0 0.8
2017-Aug-16 07:30N 59°54' E 010°44'713.8
2017-Aug-16 07:00N 59°49' E 010°35'714.5
2017-Aug-16 06:30N 59°42' E 010°36'714.6
2017-Aug-16 06:00N 59°35' E 010°38'815.5
2017-Aug-16 05:31N 59°27' E 010°34'815.5
2017-Aug-16 05:01N 59°20' E 010°36'815.5
2017-Aug-16 04:30N 59°12' E 010°39'815.6
2017-Aug-16 04:01N 59°04' E 010°40'815.4
2017-Aug-16 03:31N 58°57' E 010°43'815.7
2017-Aug-16 03:00N 58°49' E 010°46'815.7
2017-Aug-16 02:30N 58°41' E 010°49'1816.0
2017-Aug-16 01:23N 58°24' E 010°57'716.0
2017-Aug-16 00:57N 58°17' E 011°01'716.2
2017-Aug-16 00:30N 58°10' E 011°04'816.0
2017-Aug-16 00:00N 58°03' E 011°09'816.2
2017-Aug-15 23:30N 57°55' E 011°14'816.0
2017-Aug-15 23:00N 57°47' E 011°18'816.1
2017-Aug-15 22:30N 57°40' E 011°23'816.3
2017-Aug-15 22:00N 57°32' E 011°27'816.2
2017-Aug-15 21:30N 57°24' E 011°32'816.5
2017-Aug-15 21:00N 57°16' E 011°36'816.3
2017-Aug-15 20:31N 57°09' E 011°40'816.1
2017-Aug-15 20:00N 57°01' E 011°45'815.9
2017-Aug-15 19:30N 56°53' E 011°50'815.8
2017-Aug-15 18:59N 56°46' E 011°55'915.9
2017-Aug-15 18:27N 56°38' E 012°00'715.9
2017-Aug-15 18:00N 56°30' E 012°03'2315.9
2017-Aug-15 16:32N 56°12' E 012°27'217.1
2017-Aug-15 16:27N 56°10' E 012°29'818.4
2017-Aug-15 16:01N 56°04' E 012°38'917.1
2017-Aug-15 15:30N 55°56' E 012°44'816.4
2017-Aug-15 15:01N 55°48' E 012°43'713.5
2017-Aug-15 14:31N 55°42' E 012°36'0 0.5
2017-Aug-15 13:59N 55°42' E 012°36'0 0.0
2017-Aug-15 13:29N 55°42' E 012°36'0 0.0
2017-Aug-15 12:59N 55°42' E 012°36'0 0.0
2017-Aug-15 12:29N 55°42' E 012°36'0 0.0
2017-Aug-15 11:59N 55°42' E 012°36'0 0.0
2017-Aug-15 11:29N 55°42' E 012°36'0 0.0
2017-Aug-15 10:59N 55°42' E 012°36'0 0.0
2017-Aug-15 10:29N 55°42' E 012°36'0 0.0
2017-Aug-15 09:59N 55°42' E 012°36'0 0.0
2017-Aug-15 09:29N 55°42' E 012°36'0 0.0
2017-Aug-15 08:59N 55°42' E 012°36'0 0.0
2017-Aug-15 08:29N 55°42' E 012°36'0 0.0
2017-Aug-15 07:59N 55°42' E 012°36'0 0.7
2017-Aug-15 07:30N 55°42' E 012°36'5 9.6
2017-Aug-15 07:00N 55°46' E 012°41'713.4
2017-Aug-15 06:30N 55°53' E 012°40'714.1
2017-Aug-15 06:01N 55°60' E 012°37'611.9
2017-Aug-15 05:30N 56°06' E 012°35'714.5
2017-Aug-15 05:00N 56°12' E 012°28'815.4
2017-Aug-15 04:30N 56°19' E 012°22'916.1
2017-Aug-15 03:57N 56°27' E 012°17'715.5
2017-Aug-15 03:30N 56°34' E 012°14'1715.3
2017-Aug-15 02:25N 56°50' E 012°04'715.2
2017-Aug-15 01:58N 56°56' E 012°01'1115.7
2017-Aug-15 01:18N 57°06' E 011°56'715.8
2017-Aug-15 00:52N 57°13' E 011°52'617.0
2017-Aug-15 00:30N 57°18' E 011°46'917.4
2017-Aug-15 00:00N 57°26' E 011°37'817.0
2017-Aug-14 23:30N 57°33' E 011°29'816.6
2017-Aug-14 23:00N 57°40' E 011°23'916.5
2017-Aug-14 22:29N 57°48' E 011°17'916.9
2017-Aug-14 21:59N 57°57' E 011°13'817.0
2017-Aug-14 21:30N 58°05' E 011°09'916.7
2017-Aug-14 20:59N 58°13' E 011°04'816.9
2017-Aug-14 20:30N 58°21' E 010°60'917.0
2017-Aug-14 19:59N 58°29' E 010°55'816.5
2017-Aug-14 19:29N 58°37' E 010°51'816.5
2017-Aug-14 19:00N 58°45' E 010°47'917.5
2017-Aug-14 18:30N 58°53' E 010°44'917.8
2017-Aug-14 18:00N 59°02' E 010°41'917.8
2017-Aug-14 17:30N 59°11' E 010°38'917.7
2017-Aug-14 17:00N 59°19' E 010°35'917.3
2017-Aug-14 16:30N 59°28' E 010°34'816.4
2017-Aug-14 16:00N 59°36' E 010°38'714.4
2017-Aug-14 15:30N 59°43' E 010°34'816.1
2017-Aug-14 15:00N 59°51' E 010°36'5 2.8
2017-Aug-14 13:05N 59°54' E 010°45'0 0.0
2017-Aug-14 12:59N 59°54' E 010°45'0 0.0
2017-Aug-14 12:29N 59°54' E 010°45'0 0.0
2017-Aug-14 11:59N 59°54' E 010°45'0 0.0
2017-Aug-14 11:29N 59°54' E 010°45'0 0.0
2017-Aug-14 10:59N 59°54' E 010°45'0 0.0
2017-Aug-14 10:29N 59°54' E 010°45'0 0.0
2017-Aug-14 09:59N 59°54' E 010°45'0 0.0
2017-Aug-14 09:29N 59°54' E 010°45'0 0.0
2017-Aug-14 08:59N 59°54' E 010°45'0 0.0
2017-Aug-14 08:29N 59°54' E 010°45'0 0.0
2017-Aug-14 07:59N 59°54' E 010°45'0 0.5
2017-Aug-14 07:30N 59°54' E 010°44'612.5
2017-Aug-14 07:01N 59°50' E 010°36'814.8
2017-Aug-14 06:30N 59°42' E 010°36'714.3
2017-Aug-14 06:01N 59°35' E 010°38'815.6
2017-Aug-14 05:31N 59°28' E 010°35'815.4
2017-Aug-14 05:00N 59°20' E 010°36'815.6
2017-Aug-14 04:30N 59°12' E 010°39'815.4
2017-Aug-14 04:01N 59°05' E 010°40'815.3
2017-Aug-14 03:31N 58°57' E 010°42'815.3
2017-Aug-14 03:01N 58°50' E 010°45'815.2
2017-Aug-14 02:30N 58°42' E 010°48'815.3
2017-Aug-14 02:00N 58°35' E 010°51'816.2
2017-Aug-14 01:30N 58°27' E 010°56'816.8
2017-Aug-14 01:00N 58°19' E 011°01'816.8
2017-Aug-14 00:30N 58°11' E 011°04'917.1
2017-Aug-14 00:00N 58°02' E 011°09'917.0
2017-Aug-13 23:29N 57°54' E 011°14'816.7
2017-Aug-13 22:59N 57°46' E 011°18'917.0
2017-Aug-13 22:29N 57°38' E 011°23'816.9
2017-Aug-13 22:00N 57°30' E 011°28'816.6
2017-Aug-13 21:30N 57°22' E 011°32'917.0
2017-Aug-13 21:00N 57°14' E 011°37'916.8
2017-Aug-13 20:29N 57°06' E 011°42'6316.3
2017-Aug-13 16:37N 56°09' E 012°32'215.9
2017-Aug-13 16:30N 56°07' E 012°33'815.0
2017-Aug-13 16:00N 56°01' E 012°41'815.3
2017-Aug-13 15:31N 55°54' E 012°44'815.0
2017-Aug-13 15:01N 55°47' E 012°42'611.0
2017-Aug-13 14:30N 55°42' E 012°36'0 0.0
2017-Aug-13 14:00N 55°42' E 012°36'0 0.0
2017-Aug-13 13:30N 55°42' E 012°36'0 0.0
2017-Aug-13 13:00N 55°42' E 012°36'0 0.0
2017-Aug-13 12:30N 55°42' E 012°36'0 0.0
2017-Aug-13 12:00N 55°42' E 012°36'0 0.0
2017-Aug-13 11:30N 55°42' E 012°36'0 0.0
2017-Aug-13 11:00N 55°42' E 012°36'0 0.0
2017-Aug-13 10:30N 55°42' E 012°36'0 0.0
2017-Aug-13 10:00N 55°42' E 012°36'0 0.0
2017-Aug-13 09:30N 55°42' E 012°36'0 0.0
2017-Aug-13 09:00N 55°42' E 012°36'0 0.0
2017-Aug-13 08:30N 55°42' E 012°36'0 0.0
2017-Aug-13 08:00N 55°42' E 012°36'0 0.6
2017-Aug-13 07:31N 55°42' E 012°36'  

Dump ship's entire track history